Time;durP1;ratioP1;P1;durP2;ratioP2;P2;SDS_P1;SDS_P2;PMS_P1;PMS_P2;Temp;Humidity;BMP_temperature;BMP_pressure;BME280_temperature;BME280_humidity;BME280_pressure;Samples;Min_cycle;Max_cycle;Signal;HPM_P1;HPM_P2
2022/06/21 00:02:04;;;;;;;;;13.67;13.67;;;;;19.77;67.07;100903.75;5078874;27;45255;-76
2022/06/21 00:04:30;;;;;;;;;13.00;12.00;;;;;19.71;67.28;100900.13;5069174;27;45313;-76
2022/06/21 00:07:01;;;;;;;;;11.33;11.33;;;;;19.74;67.43;100910.44;5078513;27;45287;-75
2022/06/21 00:09:27;;;;;;;;;11.33;11.33;;;;;19.84;67.20;100895.56;5078685;27;45374;-76
2022/06/21 00:11:52;;;;;;;;;12.67;11.00;;;;;19.87;66.54;100882.44;5067058;27;45393;-75
2022/06/21 00:14:17;;;;;;;;;11.67;11.33;;;;;19.78;67.28;100890.03;5086213;27;45465;-76
2022/06/21 00:16:43;;;;;;;;;12.33;12.33;;;;;19.78;67.45;100903.53;5078993;27;48217;-75
2022/06/21 00:19:18;;;;;;;;;11.00;10.00;;;;;19.78;67.61;100898.13;5092126;27;45454;-76
2022/06/21 00:21:45;;;;;;;;;10.00;9.00;;;;;19.74;67.48;100886.19;5081998;27;45272;-76
2022/06/21 00:24:17;;;;;;;;;11.67;11.00;;;;;19.83;67.63;100899.31;5081860;27;45221;-76
2022/06/21 00:26:44;;;;;;;;;14.67;12.67;;;;;19.80;67.75;100900.59;5081648;27;45491;-75
2022/06/21 00:29:10;;;;;;;;;12.33;12.33;;;;;19.79;67.75;100897.06;5081780;27;45338;-75
2022/06/21 00:31:40;;;;;;;;;12.67;12.67;;;;;19.74;67.28;100894.28;5077822;27;45273;-76
2022/06/21 00:34:18;;;;;;;;;13.00;12.67;;;;;19.76;67.48;100891.34;5081812;27;45509;-76
2022/06/21 00:36:45;;;;;;;;;12.00;12.00;;;;;19.74;67.29;100878.09;5081440;27;46191;-76
2022/06/21 00:39:16;;;;;;;;;12.33;12.33;;;;;19.78;66.72;100875.72;5070704;27;45389;-76
2022/06/21 00:41:41;;;;;;;;;11.33;11.33;;;;;19.76;66.98;100885.94;5087808;27;45382;-76
2022/06/21 00:44:14;;;;;;;;;14.67;14.67;;;;;19.67;67.67;100888.97;5081387;27;45418;-76
2022/06/21 00:46:49;;;;;;;;;13.67;13.00;;;;;19.73;67.35;100894.50;5081663;27;45504;-75
2022/06/21 00:49:27;;;;;;;;;13.67;13.67;;;;;19.64;67.50;100880.53;5081704;27;45414;-76
2022/06/21 00:52:02;;;;;;;;;14.00;13.00;;;;;19.69;67.51;100891.44;5077291;27;45373;-76
2022/06/21 00:54:51;;;;;;;;;12.33;11.33;;;;;19.53;67.42;100864.13;5095531;27;45468;-76
2022/06/21 00:57:20;;;;;;;;;13.67;13.67;;;;;19.64;67.45;100883.25;5081211;27;46502;-76
2022/06/21 00:59:49;;;;;;;;;13.00;13.00;;;;;19.78;67.15;100881.13;5081202;27;45489;-76
2022/06/21 01:02:23;;;;;;;;;14.33;14.33;;;;;19.80;66.90;100879.88;5081169;27;45276;-75
2022/06/21 01:04:53;;;;;;;;;11.00;11.00;;;;;19.67;67.01;100872.78;5090007;27;45415;-75
2022/06/21 01:07:19;;;;;;;;;9.00;8.67;;;;;19.59;67.63;100869.63;5081194;27;45469;-76
2022/06/21 01:10:02;;;;;;;;;13.67;13.00;;;;;19.58;67.66;100874.22;5077139;27;45362;-75
2022/06/21 01:12:33;;;;;;;;;16.00;14.00;;;;;19.56;67.69;100879.00;5081021;27;45309;-76
2022/06/21 01:15:07;;;;;;;;;11.00;11.00;;;;;19.48;67.64;100868.56;5080802;27;45433;-75
2022/06/21 01:17:34;;;;;;;;;12.00;12.00;;;;;19.55;67.95;100878.16;5081155;27;45370;-76
2022/06/21 01:20:07;;;;;;;;;14.33;13.67;;;;;19.60;68.03;100879.38;5080898;27;45330;-76
2022/06/21 01:22:38;;;;;;;;;11.33;11.33;;;;;19.74;67.65;100875.41;5062884;28;45356;-76
2022/06/21 01:25:22;;;;;;;;;13.00;13.00;;;;;19.61;67.77;100865.66;5080903;27;45411;-75
2022/06/21 01:27:48;;;;;;;;;14.00;14.00;;;;;19.54;67.64;100851.44;5074422;27;47147;-76
2022/06/21 01:30:13;;;;;;;;;15.33;14.67;;;;;19.54;68.11;100868.44;5082214;27;45488;-76
2022/06/21 01:32:38;;;;;;;;;14.33;14.33;;;;;19.51;68.16;100871.59;5072672;27;45335;-76
2022/06/21 01:35:25;;;;;;;;;15.67;15.67;;;;;19.50;68.32;100863.75;5085757;27;45376;-76
2022/06/21 01:37:50;;;;;;;;;16.33;14.33;;;;;19.53;68.49;100876.75;5081016;27;45401;-76
2022/06/21 01:40:26;;;;;;;;;14.33;13.33;;;;;19.50;68.33;100875.34;5080485;28;45414;-76
2022/06/21 01:43:06;;;;;;;;;11.67;11.67;;;;;19.57;68.34;100894.09;5072548;27;45389;-76
2022/06/21 01:45:38;;;;;;;;;12.67;12.67;;;;;19.57;68.45;100915.66;5064662;28;46975;-75
2022/06/21 01:48:10;;;;;;;;;16.00;14.00;;;;;19.57;68.28;100910.28;5080678;27;45395;-77
2022/06/21 01:50:38;;;;;;;;;12.33;12.33;;;;;19.58;68.86;100901.16;5080191;27;45407;-75
2022/06/21 01:53:07;;;;;;;;;14.00;14.00;;;;;19.59;68.44;100904.66;5086551;27;45282;-77
2022/06/21 01:55:42;;;;;;;;;15.00;14.33;;;;;19.60;68.62;100915.22;5070363;28;47157;-76
2022/06/21 01:58:11;;;;;;;;;15.67;14.33;;;;;19.59;68.31;100921.66;5081089;27;46107;-76
2022/06/21 02:00:43;;;;;;;;;14.67;14.33;;;;;19.51;67.77;100925.50;5088748;27;45351;-75
2022/06/21 02:03:15;;;;;;;;;15.00;15.00;;;;;19.58;68.17;100941.59;5081091;27;45308;-76
2022/06/21 02:05:49;;;;;;;;;12.33;12.33;;;;;19.61;68.38;100951.91;5082251;27;46327;-76
2022/06/21 02:08:18;;;;;;;;;12.00;12.00;;;;;19.61;68.11;100960.00;5063317;28;47134;-75
2022/06/21 02:10:48;;;;;;;;;13.33;13.33;;;;;19.60;68.89;100984.50;5061816;28;45391;-76
2022/06/21 02:13:24;;;;;;;;;13.67;13.67;;;;;19.60;69.17;100979.91;5062034;28;45287;-76
2022/06/21 02:15:56;;;;;;;;;14.33;14.00;;;;;19.63;68.68;100992.13;5063397;28;45352;-75
2022/06/21 02:18:23;;;;;;;;;13.33;12.33;;;;;19.59;69.37;100996.31;5079927;27;45285;-75
2022/06/21 02:20:56;;;;;;;;;13.00;13.00;;;;;19.59;69.42;100982.84;5079961;28;45270;-75
2022/06/21 02:23:22;;;;;;;;;14.00;14.00;;;;;19.60;69.70;100971.81;5075969;27;45400;-75
2022/06/21 02:25:49;;;;;;;;;13.67;13.67;;;;;19.61;69.35;100970.78;5079963;27;45443;-75
2022/06/21 02:28:17;;;;;;;;;15.00;15.00;;;;;19.61;69.38;100949.22;5079829;27;45378;-75
2022/06/21 02:30:44;;;;;;;;;16.67;14.33;;;;;19.53;68.79;100931.50;5069565;27;45238;-76
2022/06/21 02:33:16;;;;;;;;;17.33;16.33;;;;;19.57;68.78;100937.22;5086496;27;45358;-76
2022/06/21 02:35:51;;;;;;;;;14.67;14.67;;;;;19.57;68.99;100920.25;5062222;28;45349;-75
2022/06/21 02:38:24;;;;;;;;;17.00;17.00;;;;;19.55;68.61;100913.19;5075386;27;47316;-75
2022/06/21 02:41:03;;;;;;;;;15.67;15.67;;;;;19.45;69.03;100918.34;5092186;27;45164;-76
2022/06/21 02:43:36;;;;;;;;;16.00;14.67;;;;;19.62;68.55;100920.38;5079709;27;45277;-75
2022/06/21 02:46:08;;;;;;;;;16.67;15.00;;;;;19.67;68.31;100915.13;5079573;27;45289;-75
2022/06/21 02:48:40;;;;;;;;;18.67;16.33;;;;;19.68;67.64;100912.19;5079585;27;46296;-76
2022/06/21 02:51:11;;;;;;;;;16.67;16.67;;;;;19.68;67.74;100927.53;5079564;27;45386;-76
2022/06/21 02:53:44;;;;;;;;;12.67;12.00;;;;;19.62;67.65;100910.41;5075991;27;45504;-77
2022/06/21 02:56:21;;;;;;;;;16.33;16.00;;;;;19.68;67.83;100914.06;5082263;27;45354;-76
2022/06/21 02:58:51;;;;;;;;;15.00;15.00;;;;;19.72;68.12;100923.31;5079704;27;45420;-76
2022/06/21 03:01:36;;;;;;;;;16.67;16.67;;;;;19.75;68.11;100914.78;5074942;27;45435;-75
2022/06/21 03:04:03;;;;;;;;;16.67;16.33;;;;;19.69;67.58;100902.22;5084225;27;45382;-76
2022/06/21 03:06:31;;;;;;;;;16.67;16.67;;;;;19.58;67.67;100903.84;5082766;27;45318;-76
2022/06/21 03:09:02;;;;;;;;;13.67;13.67;;;;;19.55;68.37;100907.81;5071628;27;45590;-76
2022/06/21 03:11:34;;;;;;;;;17.67;17.00;;;;;19.50;68.27;100894.22;5063568;27;45504;-76
2022/06/21 03:14:04;;;;;;;;;15.33;15.33;;;;;19.43;68.64;100883.53;5079718;28;45326;-76
2022/06/21 03:16:30;;;;;;;;;17.00;17.00;;;;;19.42;69.10;100875.66;5079115;28;45242;-75
2022/06/21 03:19:00;;;;;;;;;19.33;19.33;;;;;19.36;69.14;100871.22;5079160;27;46197;-76
2022/06/21 03:21:35;;;;;;;;;17.33;17.33;;;;;19.35;69.70;100869.56;5078750;27;45443;-75
2022/06/21 03:24:11;;;;;;;;;19.33;18.33;;;;;19.39;70.22;100859.97;5079545;27;45476;-75
2022/06/21 03:26:41;;;;;;;;;15.67;15.00;;;;;19.39;70.28;100860.78;5079080;27;45335;-76
2022/06/21 03:29:07;;;;;;;;;17.33;17.33;;;;;19.37;70.24;100862.09;5079201;27;45961;-76
2022/06/21 03:31:39;;;;;;;;;18.33;18.33;;;;;19.29;70.57;100844.38;5079076;27;45356;-76
2022/06/21 03:34:08;;;;;;;;;18.67;17.67;;;;;19.30;70.94;100846.00;5068451;27;45361;-76
2022/06/21 03:36:35;;;;;;;;;17.00;17.00;;;;;19.26;70.93;100840.28;5085188;27;45488;-76
2022/06/21 03:39:10;;;;;;;;;17.00;16.33;;;;;19.19;70.91;100823.38;5078832;27;46375;-75
2022/06/21 03:41:44;;;;;;;;;21.00;19.67;;;;;19.11;71.72;100813.75;5078806;27;45437;-75
2022/06/21 03:44:15;;;;;;;;;21.00;18.67;;;;;19.08;71.95;100800.75;5079068;28;45493;-76
2022/06/21 03:47:02;;;;;;;;;20.00;19.33;;;;;19.13;71.21;100797.38;5078882;27;45384;-75
2022/06/21 03:49:40;;;;;;;;;17.33;17.33;;;;;19.09;72.06;100791.59;5078864;27;45477;-76
2022/06/21 03:52:41;;;;;;;;;19.00;19.00;;;;;19.13;71.89;100782.00;5078905;27;45388;-76
2022/06/21 03:55:21;;;;;;;;;19.67;19.00;;;;;19.03;72.54;100765.56;5082539;27;45357;-75
2022/06/21 03:57:53;;;;;;;;;21.00;20.00;;;;;18.99;72.97;100754.44;5082038;27;45500;-76
2022/06/21 04:00:19;;;;;;;;;18.00;18.00;;;;;18.93;73.37;100748.13;5082133;27;45465;-75
2022/06/21 04:03:02;;;;;;;;;17.67;17.67;;;;;18.90;73.78;100745.88;5082062;27;45321;-75
2022/06/21 04:05:33;;;;;;;;;18.33;18.00;;;;;18.95;73.46;100753.28;5079217;27;45295;-76
2022/06/21 04:08:14;;;;;;;;;16.00;15.67;;;;;18.91;73.21;100749.38;5082030;27;45240;-75
2022/06/21 04:11:02;;;;;;;;;20.00;20.00;;;;;18.83;73.48;100739.78;5082052;27;45390;-75
2022/06/21 04:13:53;;;;;;;;;21.00;21.00;;;;;18.74;74.51;100723.09;5083749;27;46143;-74
2022/06/21 04:16:24;;;;;;;;;18.33;17.33;;;;;18.79;74.16;100734.03;5087027;27;45389;-75
2022/06/21 04:19:15;;;;;;;;;30.00;29.00;;;;;18.71;74.23;100722.75;5082073;27;45253;-76
2022/06/21 04:21:51;;;;;;;;;22.33;20.67;;;;;18.76;73.85;100723.72;5077427;27;47334;-75
2022/06/21 04:24:22;;;;;;;;;52.75;43.75;;;;;18.74;74.50;100709.66;5074439;27;45324;-75
2022/06/21 04:26:53;;;;;;;;;55.00;44.00;;;;;18.71;75.30;100709.31;5084525;27;45277;-75
2022/06/21 04:29:31;;;;;;;;;29.00;25.00;;;;;18.67;75.19;100703.53;5081817;27;45281;-75
2022/06/21 04:32:13;;;;;;;;;34.33;30.67;;;;;18.63;75.40;100705.06;5081617;27;45567;-75
2022/06/21 04:34:46;;;;;;;;;40.67;34.00;;;;;18.60;75.53;100703.66;5063464;28;45351;-75
2022/06/21 04:37:20;;;;;;;;;22.33;22.33;;;;;18.61;75.29;100693.69;5081888;27;45246;-76
2022/06/21 04:39:54;;;;;;;;;25.33;24.00;;;;;18.62;75.04;100700.72;5081734;27;45331;-74
2022/06/21 04:42:22;;;;;;;;;22.00;21.00;;;;;18.60;74.52;100705.50;5081480;27;46506;-75
2022/06/21 04:45:05;;;;;;;;;64.50;49.75;;;;;18.44;75.64;100683.59;5081661;27;45378;-75
2022/06/21 04:47:42;;;;;;;;;38.33;32.67;;;;;18.42;75.74;100683.81;5083587;27;45399;-75
2022/06/21 04:50:33;;;;;;;;;69.00;53.75;;;;;18.45;75.81;100684.41;5088181;27;45339;-76
2022/06/21 04:53:10;;;;;;;;;59.75;47.75;;;;;18.48;75.89;100686.63;5086283;27;45977;-75
2022/06/21 04:56:06;;;;;;;;;66.00;53.00;;;;;18.60;75.78;100697.44;5089107;27;45414;-75
2022/06/21 04:58:31;;;;;;;;;67.00;56.50;;;;;18.57;75.99;100693.34;5071889;27;45314;-75
2022/06/21 05:00:59;;;;;;;;;62.50;48.75;;;;;18.66;75.95;100704.59;5086750;27;45426;-75
2022/06/21 05:03:40;;;;;;;;;101.50;93.75;;;;;18.64;76.24;100686.00;5069507;27;47453;-75
2022/06/21 05:06:08;;;;;;;;;59.50;47.00;;;;;18.54;76.05;100669.56;5072372;27;45315;-76
2022/06/21 05:08:34;;;;;;;;;80.50;74.50;;;;;18.62;76.10;100680.00;5081641;27;45217;-76
2022/06/21 05:11:01;;;;;;;;;105.00;91.75;;;;;18.57;75.95;100676.38;5081407;27;45259;-75
2022/06/21 05:13:42;;;;;;;;;49.00;40.50;;;;;18.57;75.84;100676.38;5081195;27;45525;-76
2022/06/21 05:16:16;;;;;;;;;32.00;30.00;;;;;18.53;76.22;100670.63;5081296;27;45266;-75
2022/06/21 05:18:53;;;;;;;;;91.00;83.25;;;;;18.53;76.00;100670.63;5081487;27;45361;-75
2022/06/21 05:21:34;;;;;;;;;27.33;27.33;;;;;18.46;75.15;100667.22;5081070;27;45461;-76
2022/06/21 05:24:01;;;;;;;;;22.00;22.00;;;;;18.45;75.70;100679.84;5071234;27;47166;-75
2022/06/21 05:26:43;;;;;;;;;20.67;19.67;;;;;18.45;74.99;100690.63;5086371;27;45304;-75
2022/06/21 05:29:18;;;;;;;;;20.67;20.67;;;;;18.44;75.93;100688.97;5081105;27;45360;-75
2022/06/21 05:31:47;;;;;;;;;22.33;21.33;;;;;18.47;74.97;100696.56;5080790;27;46512;-75
2022/06/21 05:34:20;;;;;;;;;22.00;21.00;;;;;18.39;74.84;100710.34;5089343;27;45338;-75
2022/06/21 05:37:01;;;;;;;;;20.00;20.00;;;;;18.49;75.03;100729.47;5085134;27;45512;-75
2022/06/21 05:39:31;;;;;;;;;24.00;23.00;;;;;18.50;75.01;100712.25;5080907;27;45499;-75
2022/06/21 05:42:01;;;;;;;;;74.25;70.25;;;;;18.47;75.54;100704.63;5080542;27;45457;-74
2022/06/21 05:44:39;;;;;;;;;119.75;107.25;;;;;18.40;76.57;100695.84;5080591;27;46434;-73
2022/06/21 05:47:18;;;;;;;;;102.50;92.00;;;;;18.38;75.63;100704.13;5080731;27;45374;-75
2022/06/21 05:49:43;;;;;;;;;48.50;40.50;;;;;18.36;76.14;100705.44;5062690;28;45321;-74
2022/06/21 05:52:29;;;;;;;;;33.67;30.00;;;;;18.33;76.01;100706.72;5076172;27;45994;-74
2022/06/21 05:55:12;;;;;;;;;26.33;25.67;;;;;18.33;76.77;100708.56;5080654;27;45359;-74
2022/06/21 05:57:46;;;;;;;;;25.67;25.00;;;;;18.25;76.25;100683.63;5080435;27;45404;-73
2022/06/21 06:00:38;;;;;;;;;27.33;27.33;;;;;18.33;76.29;100717.47;5081304;27;45343;-75
2022/06/21 06:03:14;;;;;;;;;26.00;26.00;;;;;18.25;76.36;100707.00;5080730;27;45417;-74
2022/06/21 06:05:41;;;;;;;;;25.00;25.00;;;;;18.29;76.42;100732.44;5089032;27;45309;-74
2022/06/21 06:08:14;;;;;;;;;25.33;25.33;;;;;18.34;76.59;100734.41;5080187;27;45382;-74
2022/06/21 06:10:43;;;;;;;;;28.67;27.33;;;;;18.31;76.14;100734.91;5080652;27;45350;-75
2022/06/21 06:13:17;;;;;;;;;26.00;25.00;;;;;18.35;76.39;100738.75;5061820;28;47079;-75
2022/06/21 06:15:49;;;;;;;;;83.25;78.25;;;;;18.32;76.27;100739.22;5079992;27;46114;-74
2022/06/21 06:18:22;;;;;;;;;24.33;23.67;;;;;18.43;76.39;100725.00;5061752;27;45401;-74
2022/06/21 06:21:00;;;;;;;;;44.75;37.75;;;;;18.46;76.06;100726.41;5080140;27;45157;-75
2022/06/21 06:23:40;;;;;;;;;98.00;90.25;;;;;18.43;76.30;100727.69;5079915;27;45359;-74
2022/06/21 06:26:13;;;;;;;;;71.50;60.50;;;;;18.54;77.07;100744.94;5073353;27;47274;-75
2022/06/21 06:28:52;;;;;;;;;50.75;41.00;;;;;18.51;76.93;100724.69;5081387;27;45390;-75
2022/06/21 06:31:20;;;;;;;;;37.00;32.67;;;;;18.71;75.86;100730.84;5080122;27;45297;-75
2022/06/21 06:33:52;;;;;;;;;43.50;37.25;;;;;18.67;76.74;100725.91;5079727;27;45272;-75
2022/06/21 06:36:21;;;;;;;;;57.75;47.00;;;;;18.64;75.88;100720.97;5079746;27;45294;-74
2022/06/21 06:38:47;;;;;;;;;49.25;40.25;;;;;18.72;75.83;100733.28;5079769;27;45494;-75
2022/06/21 06:41:16;;;;;;;;;26.33;25.33;;;;;18.81;75.86;100741.88;5080071;27;45321;-75
2022/06/21 06:43:51;;;;;;;;;27.67;27.33;;;;;18.78;76.15;100729.69;5079777;27;45510;-77
2022/06/21 06:46:40;;;;;;;;;30.67;28.00;;;;;18.92;76.13;100745.66;5079978;27;45346;-75
2022/06/21 06:49:23;;;;;;;;;51.50;41.25;;;;;18.97;76.11;100744.97;5079592;27;45446;-74
2022/06/21 06:52:05;;;;;;;;;26.67;25.00;;;;;19.02;75.85;100753.16;5077585;27;45401;-76
2022/06/21 06:54:49;;;;;;;;;24.33;24.33;;;;;19.13;76.11;100757.75;5096716;27;45312;-74
2022/06/21 06:57:39;;;;;;;;;23.67;23.00;;;;;19.22;75.79;100752.06;5091363;27;45418;-75
2022/06/21 07:00:19;;;;;;;;;23.33;23.33;;;;;19.28;75.85;100757.31;5081612;27;45338;-75
2022/06/21 07:02:54;;;;;;;;;21.00;21.00;;;;;19.28;75.65;100743.84;5084877;27;45373;-75
2022/06/21 07:05:31;;;;;;;;;23.00;23.00;;;;;19.39;75.39;100753.00;5105432;27;45468;-75
2022/06/21 07:08:10;;;;;;;;;22.33;22.00;;;;;19.46;75.67;100750.22;5078092;28;47485;-75
2022/06/21 07:10:35;;;;;;;;;24.67;24.00;;;;;19.61;75.35;100752.44;5079679;27;45324;-75
2022/06/21 07:13:01;;;;;;;;;57.50;45.50;;;;;19.77;75.62;100760.84;5084246;27;45495;-75
2022/06/21 07:15:35;;;;;;;;;23.00;23.00;;;;;19.84;74.98;100769.63;5102807;27;45432;-76
2022/06/21 07:18:01;;;;;;;;;20.00;20.00;;;;;19.94;74.80;100764.47;5091623;27;48372;-77
2022/06/21 07:20:36;;;;;;;;;20.33;20.33;;;;;20.10;74.91;100764.00;5101382;27;44776;-78
2022/06/21 07:23:02;;;;;;;;;23.67;23.00;;;;;20.17;74.87;100764.69;5074930;27;45370;-75
2022/06/21 07:25:38;;;;;;;;;29.00;28.00;;;;;20.25;74.60;100771.59;5081396;28;45362;-76
2022/06/21 07:28:32;;;;;;;;;54.50;43.75;;;;;20.31;73.83;100778.75;5082373;27;45620;-76
2022/06/21 07:31:01;;;;;;;;;52.00;42.25;;;;;20.37;74.28;100777.78;5065985;28;46070;-75
2022/06/21 07:33:40;;;;;;;;;27.67;27.33;;;;;20.41;73.82;100772.75;5098011;27;45271;-75
2022/06/21 07:36:18;;;;;;;;;24.00;23.67;;;;;20.40;73.42;100758.41;5081573;27;45537;-75
2022/06/21 07:38:47;;;;;;;;;20.00;19.00;;;;;20.44;73.14;100766.84;5094994;27;45284;-76
2022/06/21 07:41:55;;;;;;;;;35.33;30.00;;;;;20.56;73.09;100772.19;5087713;28;45875;-75
2022/06/21 07:44:28;;;;;;;;;22.67;22.67;;;;;20.61;73.44;100783.09;5047681;28;45378;-78
2022/06/21 07:47:01;;;;;;;;;21.33;21.00;;;;;20.69;73.45;100785.41;5044662;28;45429;-80
2022/06/21 07:49:43;;;;;;;;;20.67;20.33;;;;;20.88;73.54;100787.09;5081220;27;45441;-75
2022/06/21 07:52:22;;;;;;;;;18.00;18.00;;;;;21.00;72.52;100796.00;5089573;28;45268;-78
2022/06/21 07:54:57;;;;;;;;;20.00;20.00;;;;;21.11;72.94;100794.28;5081316;28;45410;-78
2022/06/21 07:57:34;;;;;;;;;21.00;21.00;;;;;21.33;72.31;100792.75;5094235;27;46577;-78
2022/06/21 08:00:12;;;;;;;;;22.33;21.00;;;;;21.36;71.84;100792.25;5101468;27;45638;-77
2022/06/21 08:08:36;;;;;;;;;20.67;20.67;;;;;21.30;71.20;100762.44;5111278;27;45369;-76
2022/06/21 08:11:22;;;;;;;;;22.33;22.00;;;;;21.45;71.75;100779.97;5091666;27;48170;-76
2022/06/21 08:13:47;;;;;;;;;20.00;20.00;;;;;21.46;71.48;100781.59;5095182;27;45319;-75
2022/06/21 08:16:15;;;;;;;;;22.00;22.00;;;;;21.55;71.58;100790.94;5094691;27;45370;-76
2022/06/21 08:18:53;;;;;;;;;17.67;17.67;;;;;21.66;71.51;100789.19;5088012;28;46319;-79
2022/06/21 08:21:24;;;;;;;;;20.00;20.00;;;;;21.73;71.61;100788.22;5106213;27;46331;-77
2022/06/21 08:24:21;;;;;;;;;19.67;19.67;;;;;21.76;70.68;100785.84;5112194;27;45664;-78
2022/06/21 08:27:02;;;;;;;;;23.33;22.67;;;;;21.83;70.93;100782.97;5101932;27;45370;-77
2022/06/21 08:29:44;;;;;;;;;22.33;22.33;;;;;21.92;71.15;100784.19;5101722;27;45961;-77
2022/06/21 08:32:19;;;;;;;;;21.00;19.67;;;;;21.98;70.69;100776.13;5101642;27;45333;-79
2022/06/21 08:34:52;;;;;;;;;19.33;19.33;;;;;22.05;70.61;100774.06;5100295;27;45358;-77
2022/06/21 08:37:48;;;;;;;;;20.67;19.67;;;;;22.11;70.25;100780.34;5103387;27;45955;-83
2022/06/21 08:40:33;;;;;;;;;18.00;18.00;;;;;22.24;69.65;100790.78;5102234;27;45381;-75
2022/06/21 08:43:35;;;;;;;;;17.67;17.67;;;;;22.26;70.16;100777.84;5086328;27;48386;-79
2022/06/21 08:46:22;;;;;;;;;22.00;21.33;;;;;22.33;69.53;100786.59;5091447;27;45251;-77
2022/06/21 08:48:58;;;;;;;;;21.33;19.67;;;;;22.41;69.90;100793.44;5110856;27;45316;-79
2022/06/21 08:52:02;;;;;;;;;20.33;20.33;;;;;22.49;69.42;100792.19;5108746;27;45252;-81
2022/06/21 08:54:38;;;;;;;;;23.00;21.33;;;;;22.60;69.73;100785.03;5034707;27;46885;-80
2022/06/21 08:57:32;;;;;;;;;20.33;20.33;;;;;22.72;69.69;100784.06;5110031;27;45260;-82
2022/06/21 09:00:08;;;;;;;;;20.33;20.33;;;;;22.78;69.51;100780.34;5091914;27;45272;-80
2022/06/21 09:03:08;;;;;;;;;23.33;22.33;;;;;22.83;68.32;100770.34;5105256;27;45302;-81
2022/06/21 09:06:11;;;;;;;;;19.33;19.33;;;;;22.86;68.77;100770.94;5105891;27;47360;-81
2022/06/21 09:08:55;;;;;;;;;18.33;18.33;;;;;22.95;69.71;100782.91;5099959;27;45339;-80
2022/06/21 09:11:34;;;;;;;;;16.67;16.67;;;;;23.08;69.17;100770.84;5095126;27;44893;-80
2022/06/21 09:14:15;;;;;;;;;18.67;18.33;;;;;23.11;68.41;100758.66;5109078;27;45259;-80
2022/06/21 09:17:09;;;;;;;;;16.67;16.33;;;;;23.21;68.54;100766.88;5106355;27;45536;-82
2022/06/21 09:19:48;;;;;;;;;16.67;16.67;;;;;23.30;68.37;100762.63;5089919;27;45488;-80
2022/06/21 09:22:30;;;;;;;;;20.33;20.33;;;;;23.42;68.04;100767.06;5107830;27;45290;-81
2022/06/21 09:25:06;;;;;;;;;20.00;19.00;;;;;23.52;68.14;100771.75;5107324;27;45660;-81
2022/06/21 09:27:39;;;;;;;;;18.00;17.67;;;;;23.55;66.89;100763.06;5105914;27;45349;-79
2022/06/21 09:30:29;;;;;;;;;19.00;18.33;;;;;23.64;67.55;100766.94;5102095;27;45404;-79
2022/06/21 09:33:18;;;;;;;;;19.00;18.67;;;;;23.70;67.64;100755.03;5111469;27;45156;-79
2022/06/21 09:36:10;;;;;;;;;17.33;17.33;;;;;23.86;66.58;100751.59;5093120;27;45317;-80
2022/06/21 09:38:47;;;;;;;;;18.00;17.33;;;;;23.90;67.39;100753.50;5112865;27;45249;-80
2022/06/21 09:41:23;;;;;;;;;17.67;17.67;;;;;23.97;66.24;100747.81;5105397;27;45529;-78
2022/06/21 09:44:03;;;;;;;;;20.33;20.33;;;;;24.11;66.57;100750.06;5103404;27;45636;-79
2022/06/21 09:46:34;;;;;;;;;17.67;17.67;;;;;24.22;65.92;100740.91;5087322;27;46134;-78
2022/06/21 09:49:25;;;;;;;;;20.33;17.67;;;;;24.25;65.98;100739.56;5105875;27;46141;-81
2022/06/21 09:52:04;;;;;;;;;18.00;18.00;;;;;24.40;66.37;100733.34;5094488;27;45304;-81
2022/06/21 09:54:36;;;;;;;;;20.33;19.00;;;;;24.49;65.09;100742.59;5082416;27;45346;-79
2022/06/21 09:57:12;;;;;;;;;22.67;21.00;;;;;24.53;64.73;100732.84;5081883;27;46527;-79
2022/06/21 10:00:08;;;;;;;;;19.33;19.33;;;;;24.55;65.61;100729.84;5098720;27;45536;-78
2022/06/21 10:02:45;;;;;;;;;17.67;17.67;;;;;24.59;65.05;100731.75;5101093;27;45325;-81
2022/06/21 10:05:31;;;;;;;;;19.33;19.33;;;;;24.67;65.49;100724.97;5100921;27;45367;-80
2022/06/21 10:08:37;;;;;;;;;14.00;14.00;;;;;24.79;64.71;100713.84;5082983;27;46277;-79
2022/06/21 10:11:40;;;;;;;;;20.67;20.00;;;;;24.93;64.62;100716.06;5099215;27;45460;-79
2022/06/21 10:14:11;;;;;;;;;19.67;19.67;;;;;25.02;64.23;100710.88;5096519;27;45400;-78
2022/06/21 10:16:55;;;;;;;;;20.33;20.33;;;;;25.11;63.30;100711.16;5101962;27;45274;-77
2022/06/21 10:19:57;;;;;;;;;18.67;18.67;;;;;25.13;63.61;100701.63;5081743;27;46192;-79
2022/06/21 10:22:40;;;;;;;;;19.00;19.00;;;;;25.26;63.93;100711.09;5082440;27;47543;-80
2022/06/21 10:26:10;;;;;;;;;18.33;18.33;;;;;25.35;63.25;100703.22;5101970;27;45374;-77
2022/06/21 10:28:44;;;;;;;;;15.67;15.00;;;;;25.42;62.79;100697.47;4997409;28;45275;-80
2022/06/21 10:31:22;;;;;;;;;61.00;48.00;;;;;25.56;63.41;100698.53;4997500;28;46444;-78
2022/06/21 10:34:04;;;;;;;;;18.67;18.67;;;;;25.74;62.91;100687.34;5077894;27;46120;-82
2022/06/21 10:37:01;;;;;;;;;24.33;21.67;;;;;26.04;62.53;100693.75;5100665;27;45544;-79
2022/06/21 10:39:49;;;;;;;;;22.67;21.33;;;;;26.31;61.69;100682.44;5083202;27;45511;-79
2022/06/21 10:45:15;;;;;;;;;16.67;16.67;;;;;26.72;60.96;100672.31;5100621;27;45259;-77
2022/06/21 10:48:00;;;;;;;;;16.00;16.00;;;;;27.01;61.15;100674.28;5103382;27;45205;-78
2022/06/21 10:50:45;;;;;;;;;15.67;15.67;;;;;27.23;60.84;100662.03;5105300;27;45424;-78
2022/06/21 10:53:16;;;;;;;;;18.00;18.00;;;;;27.50;58.98;100668.03;5079403;27;46133;-79
2022/06/21 10:57:08;;;;;;;;;15.00;15.00;;;;;27.75;59.13;100666.94;5104072;27;45350;-77
2022/06/21 10:58:54;;;;;;;;;11.67;11.67;;;;;28.02;58.70;100667.41;5106434;27;45369;-78
2022/06/21 11:01:43;;;;;;;;;13.33;13.33;;;;;28.14;57.44;100650.56;5111269;27;45414;-77
2022/06/21 11:04:36;;;;;;;;;25.33;22.67;;;;;28.42;57.35;100662.47;5088843;27;46341;-77
2022/06/21 11:07:13;;;;;;;;;24.33;23.67;;;;;28.67;56.73;100657.66;5106994;27;46128;-78
2022/06/21 11:09:52;;;;;;;;;13.67;13.00;;;;;28.93;56.95;100670.06;5102549;27;45773;-77
2022/06/21 11:15:34;;;;;;;;;18.00;16.33;;;;;29.39;54.28;100656.69;5097726;27;45635;-79
2022/06/21 11:18:11;;;;;;;;;14.67;14.67;;;;;29.56;54.98;100651.41;5059355;27;45361;-78
2022/06/21 11:21:08;;;;;;;;;24.00;24.00;;;;;29.67;53.15;100643.81;5099119;27;45263;-79
2022/06/21 11:23:52;;;;;;;;;19.67;18.67;;;;;29.76;52.82;100643.06;5081766;27;45310;-78
2022/06/21 11:26:49;;;;;;;;;12.67;12.00;;;;;29.85;52.46;100647.53;5071575;27;47596;-79
2022/06/21 11:29:27;;;;;;;;;19.33;16.67;;;;;30.01;52.07;100641.69;5098847;27;45898;-78
2022/06/21 11:31:59;;;;;;;;;15.33;15.33;;;;;30.18;51.73;100642.97;5097247;27;45259;-79
2022/06/21 11:34:54;;;;;;;;;14.67;14.67;;;;;30.33;51.05;100641.78;5100287;27;45347;-79
2022/06/21 11:37:29;;;;;;;;;13.67;13.67;;;;;30.38;51.17;100646.34;5081581;27;45807;-78
2022/06/21 11:40:34;;;;;;;;;16.33;16.33;;;;;30.40;50.02;100633.16;5097549;27;45656;-81
2022/06/21 11:43:03;;;;;;;;;16.33;16.00;;;;;30.48;50.61;100635.13;5098572;27;45432;-80
2022/06/21 11:45:31;;;;;;;;;19.33;19.00;;;;;30.65;50.66;100636.34;5081510;27;45272;-78
2022/06/21 11:48:21;;;;;;;;;16.67;15.67;;;;;30.79;50.73;100614.34;5099866;27;45307;-78
2022/06/21 11:51:03;;;;;;;;;14.33;14.33;;;;;30.80;50.41;100626.94;5099826;27;46125;-76
2022/06/21 11:53:37;;;;;;;;;44.67;38.00;;;;;30.75;49.62;100630.59;5101970;27;45400;-77
2022/06/21 11:56:05;;;;;;;;;51.00;41.25;;;;;30.68;49.31;100641.19;5086543;27;45345;-79
2022/06/21 11:59:05;;;;;;;;;18.00;17.00;;;;;30.67;49.65;100623.94;5107043;27;45351;-78
2022/06/21 12:01:40;;;;;;;;;22.33;22.33;;;;;30.80;48.95;100630.50;5086533;27;47371;-78
2022/06/21 12:04:43;;;;;;;;;13.67;13.00;;;;;30.92;48.34;100631.84;5104299;27;45392;-78
2022/06/21 12:07:23;;;;;;;;;15.00;14.33;;;;;30.93;48.71;100631.50;5083296;27;45248;-78